Weather observations for the past three days for
Gilmer County Airport
Metric (Imperial)
Date Time (edt) Wind (kph) Vis. (km) Weather Sky Cond. Temperature (ºC) Relative Humidity Wind Chill (°C) Heat Index (°C) Pressure Precipitation (cm)
Air Dwpt 6 hour altimeter (cm) sea level (mb) 1 hr 3 hr 6 hr
Max. Min.
02 09:55 N 7 16.09 Fair CLR 28 23 74% 31 76.66 0.0
02 09:35 N 7 16.09 Fair CLR 27 23 79% 30 76.66 0.0
02 09:15 N 9 16.09 Fair CLR 26 23 84% 28 76.66 0.0
02 08:55 NE 9 16.09 Fair CLR 25 23 89% 26 76.63 0.0
02 08:35 Calm 16.09 Fair CLR 24 23 94% 23 76.63 0.0
02 08:15 N 7 16.09 Fair CLR 23 23 100% 76.63 0.0
02 07:55 Calm 16.09 Fair CLR 22 22 100% 76.61 0.0
02 07:35 Vrbl 6 12.87 Fair CLR 21 21 100% 76.58 0.0
02 07:15 Calm 14.48 Fair CLR 21 21 100% 76.58 0.0
02 06:55 N 7 16.09 Fair CLR 21 21 100% 76.58 0.0
02 06:35 N 7 14.48 Fair CLR 21 21 100% 76.56 0.0
02 06:15 Vrbl 6 16.09 Fair CLR 21 21 100% 76.53 0.0
02 05:55 NE 11 16.09 Fair CLR 21 21 100% 76.53 0.0
02 05:35 Vrbl 6 14.48 Fair CLR 21 21 100% 76.53 0.0
02 05:15 N 9 12.87 Fair CLR 21 21 100% 76.5 0.0
02 04:55 Calm 11.27 Fair CLR 21 21 100% 76.5 0.0
02 04:35 Calm 14.48 Fair CLR 22 22 100% 76.5 0.0
02 04:15 Calm 16.09 Fair CLR 22 22 100% 76.5 0.0
02 03:55 Calm 12.87 Fair CLR 22 22 100% 76.48 0.0
02 03:35 N 6 14.48 Fair CLR 22 22 100% 76.48 0.0
02 03:15 N 7 16.09 Fair CLR 22 22 100% 76.48 0.0
02 02:55 N 6 14.48 Fair CLR 22 22 100% 76.48 0.0
02 02:35 N 7 16.09 Fair CLR 22 22 100% 76.48 0.0
02 02:15 N 6 12.87 Fair CLR 22 22 100% 76.5 0.0
02 01:55 N 7 14.48 Fair CLR 22 22 100% 76.5 0.0
02 01:35 N 7 11.27 Fair CLR 22 22 100% 76.5 0.0
02 01:15 N 6 11.27 Fair CLR 22 22 100% 76.5 0.0
02 00:55 N 6 12.87 Fair CLR 22 22 100% 76.5 0.0
02 00:35 NE 6 14.48 Fair CLR 22 22 100% 76.5 0.0
02 00:15 Calm 16.09 Fair CLR 23 23 100% 76.53 0.0
01 23:55 Calm 16.09 Fair CLR 23 23 100% 76.53 0.0
01 23:35 NE 7 16.09 Fair CLR 23 23 100% 76.53 0.0
01 23:15 Calm 16.09 Fair CLR 23 23 100% 76.53 0.0
01 22:55 N 6 16.09 Fair CLR 24 24 100% 23 76.56 0.0
01 22:35 N 6 16.09 Fair CLR 24 24 100% 23 76.53 0.0
01 22:15 Calm 16.09 Fair CLR 24 24 100% 23 76.5 0.0
01 21:55 Calm 16.09 A Few Clouds FEW080 25 24 94% 26 76.5 0.0
01 21:35 NE 6 16.09 A Few Clouds FEW080 24 24 100% 23 76.5 0.0
01 21:15 N 9 16.09 Fair CLR 24 24 100% 23 76.48 0.0
01 20:55 Calm 16.09 A Few Clouds FEW075 25 23 89% 26 76.48 0.0
01 20:35 NE 7 16.09 Fair CLR 26 24 89% 28 76.48 0.0
01 20:15 Calm 16.09 Fair CLR 27 22 74% 29 76.45 0.0
01 19:55 Calm 16.09 Fair CLR 28 23 74% 31 76.45 0.0
01 19:35 Vrbl 6 16.09 Fair CLR 29 22 66% 32 76.48 0.0
01 19:15 Calm 16.09 Fair CLR 31 23 62% 35 76.48 0.0
01 18:55 Calm 12.87 Fair CLR 32 22 55% 36 76.48 0.0
01 18:35 Vrbl 7 16.09 Fair CLR 32 21 52% 35 76.48 0.0
01 18:15 N 7 16.09 Fair CLR 33 19 44% 35 76.45 0.0
01 17:55 Vrbl 6 16.09 Fair CLR 33 19 44% 35 76.45 0.0
01 17:35 N 9 16.09 Fair CLR 34 19 41% 36 76.45 0.0
01 17:15 Vrbl 7 16.09 Fair CLR 34 19 41% 36 76.45 0.0
01 16:55 NE 11 16.09 A Few Clouds FEW050 34 20 44% 36 76.48 0.0
01 16:35 Calm 16.09 A Few Clouds FEW050 34 19 41% 36 76.48 0.0
01 16:15 Vrbl 9 16.09 Partly Cloudy SCT050 33 20 46% 35 76.5 0.0
01 15:55 Vrbl 7 16.09 Fair CLR 34 20 44% 36 76.5 0.0
01 15:35 N 7 16.09 A Few Clouds FEW048 FEW055 34 20 44% 36 76.53 0.0
01 15:15 N 7 16.09 Mostly Cloudy BKN048 33 21 49% 36 76.56 0.0
01 14:55 Vrbl 7 16.09 Partly Cloudy SCT048 SCT055 34 20 44% 36 76.56 0.0
01 14:35 Vrbl 11 16.09 Mostly Cloudy BKN046 BKN055 33 20 46% 35 76.56 0.0
01 14:15 Vrbl 7 16.09 Partly Cloudy SCT046 SCT060 34 21 47% 37 76.58 0.0
01 13:55 Vrbl 6 16.09 Fair CLR 34 20 44% 36 76.61 0.0
01 13:35 Vrbl 7 G 19 16.09 A Few Clouds FEW044 33 20 46% 35 76.61 0.0
01 13:15 Calm 16.09 A Few Clouds FEW041 33 20 46% 35 76.63 0.0
01 12:55 Calm 16.09 A Few Clouds FEW040 33 22 52% 37 76.66 0.0
01 12:35 Vrbl 7 16.09 A Few Clouds FEW039 31 21 55% 34 76.66 0.0
01 12:15 Calm 16.09 Fair CLR 32 21 52% 35 76.68 0.0
01 11:55 Calm 16.09 Fair CLR 31 21 55% 34 76.71 0.0
01 11:35 Calm 16.09 Fair CLR 31 21 55% 34 76.71 0.0
01 11:15 Calm 16.09 Fair CLR 30 21 59% 33 76.71 0.0
01 10:55 Calm 16.09 Fair CLR 29 21 62% 31 76.71 0.0
01 10:35 NE 6 16.09 Fair CLR 29 22 66% 32 76.71 0.0
01 10:15 NE 6 16.09 Fair CLR 27 22 74% 29 76.71 0.0
01 09:55 Calm 14.48 Fair CLR 26 22 79% 28 76.71 0.0
01 09:35 NE 7 16.09 Fair CLR 25 22 83% 26 76.71 0.0
01 09:15 Calm 16.09 Fair CLR 25 22 83% 26 76.71 0.0
01 08:55 Calm 16.09 Fair CLR 24 22 89% 24 76.68 0.0
01 08:35 Calm 16.09 Fair CLR 23 22 94% 76.68 0.0
01 08:15 N 6 16.09 Fair CLR 22 22 100% 76.66 0.0
01 07:55 Calm 16.09 Fair CLR 21 21 100% 76.66 0.0
01 07:35 N 7 14.48 Fair CLR 20 20 100% 76.63 0.0
01 07:15 N 7 14.48 Fair CLR 20 20 100% 76.61 0.0
01 06:55 N 6 16.09 Fair CLR 20 20 100% 76.61 0.0
01 06:35 Vrbl 6 16.09 Fair CLR 21 21 100% 76.61 0.0
01 06:15 NE 7 16.09 Fair CLR 21 21 100% 76.58 0.0
01 05:55 NE 7 14.48 Fair CLR 21 21 100% 76.58 0.0
01 05:35 N 7 14.48 Fair CLR 21 21 100% 76.58 0.0
01 05:15 N 7 16.09 Fair CLR 21 21 100% 76.56 0.0
01 04:55 N 7 16.09 Fair CLR 21 21 100% 76.56 0.0
01 04:35 Calm 16.09 Fair CLR 21 21 100% 76.56 0.0
01 04:15 NE 7 16.09 Fair CLR 21 21 100% 76.56 0.0
01 03:55 NE 9 16.09 Fair CLR 21 21 100% 76.56 0.0
01 03:35 N 7 16.09 Fair CLR 21 21 100% 76.56 0.0
01 03:15 N 9 16.09 Fair CLR 21 21 100% 76.56 0.0
01 02:55 N 7 16.09 Fair CLR 21 21 100% 76.58 0.0
01 02:35 N 9 16.09 Fair CLR 21 21 100% 76.58 0.0
01 02:15 Vrbl 6 16.09 Fair CLR 21 21 100% 76.58 0.0
01 01:55 Calm 16.09 Fair CLR 21 21 100% 76.61 0.0
01 01:35 NE 11 16.09 Fair CLR 22 22 100% 76.58 0.0
01 01:15 NE 9 16.09 Fair CLR 22 22 100% 76.58 0.0
01 00:55 NE 9 14.48 Fair CLR 22 22 100% 76.58 0.0
01 00:35 N 6 11.27 Fair CLR 22 22 100% 76.61 0.0
01 00:15 Calm 16.09 Fair CLR 22 22 100% 76.61 0.0
31 23:55 Calm 14.48 Fair CLR 23 23 100% 76.58 0.0
31 23:35 NE 7 16.09 Fair CLR 23 23 100% 76.58 0.0
31 23:15 NE 9 16.09 Fair CLR 23 23 100% 76.58 0.0
31 22:55 Calm 14.48 Fair CLR 22 22 100% 76.61 0.0
31 22:35 Calm 16.09 Fair CLR 23 23 100% 76.58 0.0
31 22:15 Calm 16.09 Fair CLR 23 23 100% 76.58 0.0
31 21:55 Calm 16.09 Fair CLR 23 23 100% 76.58 0.0
31 21:35 Calm 16.09 Fair CLR 24 23 94% 23 76.56 0.0
31 21:15 Calm 16.09 Fair CLR 24 23 94% 23 76.53 0.0
31 20:55 Calm 16.09 Fair CLR 24 23 94% 23 76.53 0.0
31 20:35 Calm 16.09 Fair CLR 25 23 89% 26 76.5 0.0
31 20:15 Calm 16.09 Fair CLR 27 22 74% 29 76.5 0.0
31 19:35 Calm 16.09 Fair CLR 28 23 74% 31 76.5 0.0
31 19:15 Calm 16.09 Fair CLR 30 22 62% 33 76.5 0.0
31 18:55 Calm 16.09 Fair CLR 31 21 55% 34 76.53 0.0
31 18:35 N 9 16.09 Fair CLR 32 21 52% 35 76.53 0.0
31 18:15 Calm 16.09 Fair CLR 32 19 46% 33 76.53 0.0
31 17:55 Vrbl 7 16.09 A Few Clouds FEW110 32 19 46% 33 76.53 0.0
31 17:35 N 7 16.09 Partly Cloudy SCT045 SCT060 31 20 52% 33 76.53 0.0
31 17:15 Calm 16.09 Mostly Cloudy SCT045 BKN060 BKN100 32 20 49% 34 76.53 0.0
31 16:55 NW 6 16.09 Mostly Cloudy FEW048 BKN100 31 19 49% 32 76.56 0.0
31 16:35 Calm 16.09 Mostly Cloudy SCT047 BKN100 33 20 46% 35 76.56 0.0
31 16:15 Vrbl 6 16.09 A Few Clouds FEW050 30 21 59% 33 76.58 0.0
31 15:55 NE 7 16.09 Partly Cloudy SCT049 SCT100 31 20 52% 33 76.61 0.0
31 15:35 Calm 16.09 Mostly Cloudy FEW048 FEW065 BKN100 32 19 46% 33 76.61 0.0
31 15:15 Vrbl 9 16.09 A Few Clouds FEW046 33 19 44% 35 76.61 0.0
31 14:55 Calm 16.09 Fair CLR 33 20 46% 35 76.63 0.0
31 14:35 Calm 16.09 Fair CLR 32 19 46% 33 76.66 0.0
31 14:15 Calm 16.09 A Few Clouds FEW040 32 19 46% 33 76.66 0.0
31 13:55 NW 9 16.09 Partly Cloudy SCT040 32 20 49% 34 76.68 0.0
31 13:35 Calm 16.09 Fair CLR 31 19 49% 32 76.71 0.0
31 13:15 Calm 16.09 Mostly Cloudy SCT036 BKN045 29 20 58% 31 76.71 0.0
31 12:55 Calm 12.87 Mostly Cloudy BKN034 31 21 55% 34 76.71 0.0
31 12:35 Calm 16.09 Fair CLR 30 20 55% 32 76.73 0.0
31 12:15 Vrbl 6 16.09 Fair CLR 30 21 59% 33 76.73 0.0
31 11:55 Calm 16.09 A Few Clouds FEW026 FEW034 28 22 70% 31 76.76 0.0
31 11:35 W 7 16.09 Partly Cloudy SCT023 SCT036 30 22 62% 33 76.76 0.0
31 11:15 Calm 16.09 Partly Cloudy SCT021 28 23 74% 31 76.76 0.0
31 10:55 Calm 16.09 Fair CLR 27 22 74% 29 76.76 0.0
31 10:35 Calm 16.09 Fair CLR 27 23 79% 30 76.76 0.0
31 10:15 Vrbl 6 16.09 Fair CLR 27 23 79% 30 76.76 0.0
31 09:55 Calm 16.09 Fair CLR 26 23 84% 28 76.73 0.0
31 09:35 Calm 12.87 Fair CLR 25 22 83% 26 76.73 0.0
31 09:15 Vrbl 6 16.09 Fair CLR 25 22 83% 26 76.73 0.0
31 08:55 Calm 16.09 Fair CLR 23 22 94% 76.73 0.0
31 08:35 Vrbl 6 16.09 Fair CLR 22 22 100% 76.71 0.0
31 08:15 Calm 16.09 Fair CLR 21 21 100% 76.71 0.0
31 07:55 NE 7 14.48 Fair CLR 20 20 100% 76.71 0.0
31 07:35 Calm 11.27 Fair CLR 20 20 100% 76.68 0.0
31 07:15 N 6 11.27 Fair CLR 20 20 100% 76.66 0.0
31 06:55 N 7 14.48 Fair CLR 20 20 100% 76.66 0.0
31 06:35 NE 11 16.09 Fair CLR 20 20 100% 76.63 0.0
31 06:15 NE 11 16.09 Fair CLR 20 20 100% 76.63 0.0
31 05:55 NE 11 16.09 Fair CLR 20 20 100% 76.63 0.0
31 05:35 NE 11 16.09 Fair CLR 20 20 100% 76.63 0.0
31 05:15 NE 11 16.09 Fair CLR 20 20 100% 76.63 0.0
31 04:55 N 7 11.27 Fair CLR 20 20 100% 76.61 0.0
31 04:35 N 9 11.27 Fair CLR 20 20 100% 76.61 0.0
31 04:15 NE 9 16.09 Fair CLR 21 21 100% 76.58 0.0
31 03:55 NE 9 16.09 Fair CLR 21 21 100% 76.58 0.0
31 03:35 NE 7 14.48 Fair CLR 20 20 100% 76.58 0.0
31 03:15 Calm 12.87 Fair CLR 21 21 100% 76.61 0.0
31 02:55 N 7 11.27 Fair CLR 21 21 100% 76.61 0.0
31 02:35 N 7 14.48 Fair CLR 21 21 100% 76.61 0.0
31 02:15 N 7 14.48 Fair CLR 21 21 100% 76.61 0.0
31 01:55 NE 9 14.48 Fair CLR 21 21 100% 76.61 0.0
31 01:35 NE 7 14.48 Fair CLR 21 21 100% 76.61 0.0
31 01:15 NE 7 9.66 Fog/Mist CLR 21 21 100% 76.63 0.0
31 00:55 Calm 14.48 Fair CLR 21 21 100% 76.63 0.0
31 00:35 Calm 16.09 Fair CLR 21 21 100% 76.61 0.0
31 00:15 Calm 11.27 Fair CLR 21 21 100% 76.63 0.0
30 23:55 Calm 14.48 Fair CLR 22 22 100% 76.63 0.0
30 23:35 Calm 16.09 Fair CLR 22 22 100% 76.63 0.0
30 23:15 NE 7 16.09 Fair CLR 22 22 100% 76.63 0.0
30 22:55 N 7 12.87 Fair CLR 21 21 100% 76.66 0.0
30 22:35 Calm 14.48 Fair CLR 22 22 100% 76.63 0.0
30 22:15 Calm 16.09 Fair CLR 23 23 100% 76.63 0.0
30 21:55 Calm 16.09 Fair CLR 23 22 94% 76.63 0.0
30 21:35 Calm 16.09 Fair CLR 23 22 94% 76.61 0.0
30 21:15 Calm 16.09 Fair CLR 24 22 89% 24 76.58 0.0
30 20:55 Calm 16.09 Fair CLR 24 23 94% 23 76.58 0.0
30 20:35 Calm 16.09 Fair CLR 25 23 89% 26 76.56 0.0
30 20:15 Calm 16.09 Fair CLR 27 22 74% 29 76.53 0.0
30 19:55 Calm 16.09 Fair CLR 28 22 70% 31 76.53 0.0
30 19:35 SE 6 16.09 Fair CLR 28 22 70% 31 76.53 0.0
30 19:15 Calm 16.09 Fair CLR 29 21 62% 31 76.56 0.0
30 18:55 SE 9 16.09 A Few Clouds FEW039 30 20 55% 32 76.56 0.0
30 18:35 S 6 16.09 Fair CLR 31 20 52% 33 76.53 0.0
30 18:15 Vrbl 7 16.09 Fair CLR 31 20 52% 33 76.53 0.0
30 17:55 Vrbl 9 16.09 Fair CLR 31 19 49% 32 76.53 0.0
30 17:35 Vrbl 9 16.09 A Few Clouds FEW043 32 19 46% 33 76.53 0.0
30 17:15 Vrbl 11 16.09 Partly Cloudy SCT042 SCT049 32 20 49% 34 76.53 0.0
30 16:55 Vrbl 9 16.09 Partly Cloudy SCT042 SCT050 32 19 46% 33 76.56 0.0
30 16:35 S 9 16.09 A Few Clouds FEW042 FEW049 FEW060 32 19 46% 33 76.56 0.0
30 16:15 Vrbl 9 16.09 Partly Cloudy SCT043 SCT049 SCT065 32 19 46% 33 76.56 0.0
30 15:55 Vrbl 7 16.09 Fair CLR 32 19 46% 33 76.58 0.0
30 15:35 Vrbl 7 16.09 Partly Cloudy SCT041 SCT070 32 20 49% 34 76.58 0.0
30 15:15 SE 9 16.09 Mostly Cloudy BKN040 BKN065 31 20 52% 33 76.63 0.0
30 14:55 Vrbl 6 16.09 Partly Cloudy FEW038 FEW044 SCT050 31 19 49% 32 76.63 0.0
30 14:35 Vrbl 9 16.09 A Few Clouds FEW038 30 20 55% 32 76.66 0.0
30 14:15 Calm 16.09 Partly Cloudy SCT036 SCT042 SCT070 30 20 55% 32 76.68 0.0
30 13:55 Calm 16.09 Mostly Cloudy BKN035 BKN041 BKN070 30 20 55% 32 76.71 0.0
30 13:35 Calm 16.09 Partly Cloudy SCT034 SCT040 31 20 52% 33 76.71 0.0
30 13:15 Vrbl 6 16.09 Partly Cloudy FEW032 SCT046 30 21 59% 33 76.73 0.0
30 12:55 S 11 16.09 Partly Cloudy FEW041 SCT049 SCT055 30 20 55% 32 76.76 0.0
30 12:35 Vrbl 7 16.09 Mostly Cloudy FEW032 SCT039 BKN050 29 21 62% 31 76.78 0.0
30 12:15 Calm 16.09 Mostly Cloudy FEW031 SCT037 BKN050 28 21 66% 30 76.78 0.0
30 11:55 SE 9 16.09 Mostly Cloudy SCT025 BKN032 BKN038 27 21 70% 29 76.81 0.0
30 11:35 Vrbl 7 16.09 Overcast SCT023 BKN029 OVC034 27 22 74% 29 76.81 0.0
30 11:15 Vrbl 7 16.09 Mostly Cloudy FEW022 SCT027 BKN034 27 22 74% 29 76.78 0.0
30 10:55 SE 9 16.09 Mostly Cloudy SCT022 BKN027 BKN036 27 22 74% 29 76.81 0.0
30 10:35 Calm 16.09 Overcast SCT018 BKN023 OVC033 26 22 79% 28 76.81 0.0
Date Time (edt) Wind (kph) Vis. (km) Weather Sky Cond. Air Dwpt Max. Min. Relative Humidity Wind Chill (°C) Heat Index (°C) altimeter (cm) sea level (mb) 1 hr 3 hr 6 hr
6 hour
Temperature (ºC) Pressure Precipitation (cm)